Time;durP1;ratioP1;P1;durP2;ratioP2;P2;SDS_P1;SDS_P2;PMS_P1;PMS_P2;Temp;Humidity;BMP_temperature;BMP_pressure;BME280_temperature;BME280_humidity;BME280_pressure;Samples;Min_cycle;Max_cycle;Signal;HPM_P1;HPM_P2
2021/08/11 00:01:03;;;;;;;16.42;11.38;;;;;;;15.64;88.08;94743.77;1660509;85;21915;-54
2021/08/11 00:03:30;;;;;;;21.52;11.57;;;;;;;15.64;88.34;94742.99;1661277;85;21066;-55
2021/08/11 00:05:57;;;;;;;15.30;11.05;;;;;;;15.65;88.53;94742.53;1668610;85;21052;-54
2021/08/11 00:08:24;;;;;;;14.75;11.10;;;;;;;15.61;88.40;94743.34;1661378;85;21180;-54
2021/08/11 00:10:51;;;;;;;25.40;11.00;;;;;;;15.59;88.58;94742.29;1660589;85;21033;-56
2021/08/11 00:13:18;;;;;;;17.25;10.30;;;;;;;15.55;88.89;94748.02;1671148;85;21790;-54
2021/08/11 00:15:45;;;;;;;18.98;11.70;;;;;;;15.51;89.11;94751.61;1667215;85;20973;-55
2021/08/11 00:18:12;;;;;;;29.55;13.18;;;;;;;15.47;89.33;94748.87;1668077;85;21017;-56
2021/08/11 00:20:39;;;;;;;24.10;13.25;;;;;;;15.44;89.83;94747.84;1660651;85;21092;-55
2021/08/11 00:23:06;;;;;;;33.98;16.97;;;;;;;15.43;90.23;94749.09;1658553;85;21448;-53
2021/08/11 00:25:33;;;;;;;42.15;15.25;;;;;;;15.37;90.13;94746.83;1668680;84;21150;-54
2021/08/11 00:27:59;;;;;;;32.25;16.48;;;;;;;15.33;90.37;94751.80;1662247;85;21024;-53
2021/08/11 00:30:27;;;;;;;40.88;16.73;;;;;;;15.31;90.50;94754.28;1657338;85;21025;-53
2021/08/11 00:32:54;;;;;;;34.48;17.30;;;;;;;15.31;90.83;94759.05;1662166;85;21465;-55
2021/08/11 00:35:21;;;;;;;34.90;17.23;;;;;;;15.32;91.16;94757.20;1668068;85;20989;-54
2021/08/11 00:37:50;;;;;;;32.38;17.90;;;;;;;15.34;91.28;94752.58;1662527;85;21151;-55
2021/08/11 00:40:19;;;;;;;37.15;17.50;;;;;;;15.36;91.35;94752.86;1659889;85;21030;-55
2021/08/11 00:42:47;;;;;;;32.65;16.07;;;;;;;15.34;91.46;94749.17;1656704;85;20998;-55
2021/08/11 00:45:14;;;;;;;26.27;15.00;;;;;;;15.36;91.76;94759.16;1671831;85;21691;-55
2021/08/11 00:47:41;;;;;;;31.90;17.77;;;;;;;15.38;91.53;94751.13;1671846;85;21130;-55
2021/08/11 00:50:10;;;;;;;32.33;17.87;;;;;;;15.41;91.43;94748.81;1671087;85;21935;-54
2021/08/11 00:52:38;;;;;;;33.08;16.75;;;;;;;15.41;91.43;94747.42;1659375;85;21615;-55
2021/08/11 00:55:09;;;;;;;28.80;15.15;;;;;;;15.40;91.58;94754.18;1672513;85;21137;-55
2021/08/11 00:57:36;;;;;;;25.52;13.60;;;;;;;15.40;91.78;94750.02;1672862;85;21473;-54
2021/08/11 01:00:05;;;;;;;26.65;14.05;;;;;;;15.37;91.54;94744.69;1665450;85;20997;-55
2021/08/11 01:02:33;;;;;;;22.95;13.60;;;;;;;15.33;91.23;94742.73;1659455;85;21129;-54
2021/08/11 01:05:00;;;;;;;26.55;13.48;;;;;;;15.28;90.94;94744.73;1673486;85;21024;-54
2021/08/11 01:07:28;;;;;;;20.62;12.88;;;;;;;15.26;90.93;94739.69;1677817;85;21021;-54
2021/08/11 01:09:56;;;;;;;28.10;13.75;;;;;;;15.27;90.76;94738.44;1662315;85;21476;-55
2021/08/11 01:12:25;;;;;;;24.37;13.88;;;;;;;15.30;90.64;94736.13;1656636;85;20969;-55
2021/08/11 01:14:54;;;;;;;25.00;14.28;;;;;;;15.33;90.30;94723.33;1650346;84;20966;-54
2021/08/11 01:17:24;;;;;;;32.17;14.93;;;;;;;15.33;90.18;94724.08;1660945;85;21029;-54
2021/08/11 01:19:51;;;;;;;25.75;15.10;;;;;;;15.31;89.99;94728.56;1676152;85;21016;-54
2021/08/11 01:22:42;;;;;;;27.58;14.85;;;;;;;15.27;90.36;94725.97;1665978;84;21202;-55
2021/08/11 01:25:36;;;;;;;22.25;13.48;;;;;;;15.26;90.35;94736.91;1655991;85;21500;-54
2021/08/11 01:28:43;;;;;;;24.35;12.35;;;;;;;15.24;90.24;94732.47;1658856;85;21138;-55
2021/08/11 01:31:19;;;;;;;21.52;12.10;;;;;;;15.24;89.87;94744.16;1658789;85;21226;-55
2021/08/11 01:34:07;;;;;;;20.37;11.60;;;;;;;15.19;89.94;94733.75;1674855;85;20977;-53
2021/08/11 01:36:53;;;;;;;14.03;10.25;;;;;;;15.21;90.12;94728.49;1632965;85;20994;-55
2021/08/11 01:39:37;;;;;;;25.10;13.50;;;;;;;15.26;90.38;94727.21;1655757;85;21580;-55
2021/08/11 01:42:10;;;;;;;19.87;13.62;;;;;;;15.30;90.36;94729.80;1658024;85;21223;-54
2021/08/11 01:44:52;;;;;;;17.35;12.13;;;;;;;15.30;90.45;94733.96;1678414;85;20961;-55
2021/08/11 01:47:24;;;;;;;17.42;12.68;;;;;;;15.25;90.04;94727.06;1657287;85;21040;-55
2021/08/11 01:49:52;;;;;;;24.90;12.15;;;;;;;15.20;90.38;94734.64;1657986;85;21013;-55
2021/08/11 01:52:19;;;;;;;15.00;11.57;;;;;;;15.21;90.57;94723.70;1671021;85;21114;-55
2021/08/11 01:54:47;;;;;;;16.80;11.93;;;;;;;15.23;90.72;94728.17;1653691;85;21142;-56
2021/08/11 01:57:15;;;;;;;18.10;11.88;;;;;;;15.24;90.88;94733.08;1667318;85;21603;-54
2021/08/11 01:59:43;;;;;;;14.68;11.93;;;;;;;15.25;90.95;94728.45;1656895;85;21066;-55
2021/08/11 02:02:16;;;;;;;17.25;12.28;;;;;;;15.26;90.63;94726.43;1670061;85;21017;-56
2021/08/11 02:04:44;;;;;;;12.95;10.10;;;;;;;15.24;90.56;94735.24;1677627;85;21029;-56
2021/08/11 02:07:12;;;;;;;10.98;9.05;;;;;;;15.24;90.68;94732.47;1674135;85;22248;-55
2021/08/11 02:09:39;;;;;;;16.12;9.93;;;;;;;15.23;90.75;94726.78;1663972;85;21060;-54
2021/08/11 02:12:09;;;;;;;23.57;12.70;;;;;;;15.21;90.73;94730.62;1670749;85;21040;-53
2021/08/11 02:14:38;;;;;;;25.32;16.23;;;;;;;15.16;90.82;94721.60;1670951;84;20961;-55
2021/08/11 02:17:07;;;;;;;40.83;20.95;;;;;;;15.14;91.01;94721.95;1633879;85;20984;-55
2021/08/11 02:19:34;;;;;;;34.13;18.98;;;;;;;15.11;90.94;94723.66;1671659;85;21187;-55
2021/08/11 02:22:03;;;;;;;40.43;20.17;;;;;;;15.08;90.85;94726.61;1670111;85;21020;-55
2021/08/11 02:24:30;;;;;;;41.55;21.42;;;;;;;15.04;91.23;94725.41;1660953;85;21005;-55
2021/08/11 02:27:04;;;;;;;35.58;20.50;;;;;;;15.06;91.04;94727.71;1659588;85;21025;-55
2021/08/11 02:30:02;;;;;;;28.90;15.85;;;;;;;15.03;90.99;94721.10;1655752;85;21006;-54
2021/08/11 02:32:53;;;;;;;32.65;17.90;;;;;;;15.02;90.85;94723.73;1671564;85;21158;-55
2021/08/11 02:35:33;;;;;;;30.08;16.75;;;;;;;14.98;90.91;94723.16;1654657;84;21438;-54
2021/08/11 02:38:24;;;;;;;38.17;19.07;;;;;;;14.95;90.94;94731.65;1659954;84;21037;-53
2021/08/11 02:41:11;;;;;;;33.53;18.70;;;;;;;14.90;91.13;94729.55;1668827;85;21529;-56
2021/08/11 02:43:55;;;;;;;39.27;20.00;;;;;;;14.90;91.35;94730.33;1653018;85;21564;-54
2021/08/11 02:46:25;;;;;;;40.17;19.95;;;;;;;14.87;91.33;94725.73;1657330;85;21903;-56
2021/08/11 02:48:59;;;;;;;33.05;17.32;;;;;;;14.86;91.75;94728.97;1620311;86;21139;-55
2021/08/11 02:51:30;;;;;;;35.25;18.48;;;;;;;14.84;91.70;94736.99;1664194;84;21079;-55
2021/08/11 02:54:04;;;;;;;33.55;18.82;;;;;;;14.86;91.54;94733.13;1663497;85;21072;-55
2021/08/11 02:56:32;;;;;;;40.03;17.80;;;;;;;14.83;91.47;94727.91;1674475;85;21049;-55
2021/08/11 02:59:01;;;;;;;36.48;18.90;;;;;;;14.87;91.40;94733.27;1663113;85;21061;-55
2021/08/11 03:01:31;;;;;;;26.45;16.65;;;;;;;14.90;91.25;94732.31;1666562;85;21504;-55
2021/08/11 03:03:59;;;;;;;21.77;14.63;;;;;;;14.89;90.84;94728.80;1667618;84;21103;-55
2021/08/11 03:06:26;;;;;;;22.93;13.88;;;;;;;14.83;90.42;94727.91;1667429;85;21036;-55
2021/08/11 03:08:56;;;;;;;21.37;13.15;;;;;;;14.77;90.33;94722.11;1672741;85;21055;-55
2021/08/11 03:11:23;;;;;;;22.67;13.55;;;;;;;14.75;90.61;94718.45;1659354;84;21138;-56
2021/08/11 03:13:50;;;;;;;22.20;14.73;;;;;;;14.79;90.97;94714.86;1666707;84;20981;-55
2021/08/11 03:16:16;;;;;;;22.07;14.38;;;;;;;14.83;90.75;94720.98;1669354;85;20957;-56
2021/08/11 03:18:46;;;;;;;19.25;13.62;;;;;;;14.78;90.53;94717.49;1669593;85;21000;-56
2021/08/11 03:21:13;;;;;;;16.62;11.93;;;;;;;14.76;90.51;94724.73;1651962;85;20990;-56
2021/08/11 03:23:40;;;;;;;24.90;14.10;;;;;;;14.78;90.76;94726.44;1676084;85;21763;-56
2021/08/11 03:26:07;;;;;;;30.15;12.40;;;;;;;14.83;90.97;94732.69;1668097;84;21127;-55
2021/08/11 03:28:34;;;;;;;24.65;11.63;;;;;;;14.84;90.73;94732.20;1662716;84;21194;-56
2021/08/11 03:31:02;;;;;;;22.55;13.30;;;;;;;14.80;90.53;94731.63;1671398;85;21029;-55
2021/08/11 03:33:30;;;;;;;25.43;11.97;;;;;;;14.75;90.77;94734.28;1673658;85;21013;-56
2021/08/11 03:35:57;;;;;;;27.95;13.75;;;;;;;14.73;90.92;94736.16;1668274;85;21155;-54
2021/08/11 03:38:24;;;;;;;20.70;11.43;;;;;;;14.70;91.01;94732.95;1669693;85;20950;-54
2021/08/11 03:40:53;;;;;;;19.02;12.25;;;;;;;14.71;91.16;94736.47;1674634;85;20996;-54
2021/08/11 03:43:21;;;;;;;30.27;16.30;;;;;;;14.70;91.01;94732.17;1654864;85;21028;-54
2021/08/11 03:45:50;;;;;;;26.05;18.67;;;;;;;14.70;91.05;94732.95;1660714;85;21581;-56
2021/08/11 03:48:17;;;;;;;26.15;14.25;;;;;;;14.68;91.03;94734.66;1661912;85;21145;-56
2021/08/11 03:50:44;;;;;;;32.73;14.53;;;;;;;14.67;91.09;94736.65;1663604;85;21132;-56
2021/08/11 03:53:12;;;;;;;41.15;17.75;;;;;;;14.68;91.11;94738.20;1666570;84;21049;-55
2021/08/11 03:55:39;;;;;;;54.60;17.12;;;;;;;14.70;91.24;94739.09;1672981;85;21049;-55
2021/08/11 03:58:06;;;;;;;44.03;15.53;;;;;;;14.73;91.42;94737.55;1665011;85;21575;-56
2021/08/11 04:00:34;;;;;;;33.85;13.05;;;;;;;14.72;91.35;94740.77;1652534;84;21124;-55
2021/08/11 04:03:01;;;;;;;31.75;11.73;;;;;;;14.70;91.30;94738.49;1673763;85;21516;-54
2021/08/11 04:05:28;;;;;;;33.02;11.18;;;;;;;14.69;91.02;94741.72;1666371;85;20965;-55
2021/08/11 04:07:54;;;;;;;29.02;12.43;;;;;;;14.65;90.99;94739.12;1656121;85;21139;-55
2021/08/11 04:10:22;;;;;;;29.07;11.33;;;;;;;14.66;91.11;94738.52;1665039;85;21056;-55
2021/08/11 04:12:49;;;;;;;26.55;11.10;;;;;;;14.69;91.26;94738.34;1663034;85;21107;-55
2021/08/11 04:15:15;;;;;;;23.05;12.15;;;;;;;14.74;91.08;94733.53;1666067;85;21013;-55
2021/08/11 04:17:42;;;;;;;24.95;11.33;;;;;;;14.81;91.11;94741.47;1658842;84;21021;-55
2021/08/11 04:20:10;;;;;;;25.55;11.48;;;;;;;14.91;91.04;94741.55;1666306;85;21532;-55
2021/08/11 04:22:37;;;;;;;26.90;13.40;;;;;;;15.02;91.03;94751.44;1654376;85;21544;-55
2021/08/11 04:25:05;;;;;;;18.40;11.73;;;;;;;15.13;90.92;94747.50;1667648;85;21850;-55
2021/08/11 04:27:32;;;;;;;27.82;11.28;;;;;;;15.22;90.76;94744.63;1654703;85;21064;-56
2021/08/11 04:29:59;;;;;;;19.42;10.25;;;;;;;15.32;90.71;94746.11;1661299;85;21120;-55
2021/08/11 04:32:25;;;;;;;17.42;10.85;;;;;;;15.39;90.34;94749.87;1658596;85;21000;-57
2021/08/11 04:34:51;;;;;;;24.27;11.60;;;;;;;15.43;90.20;94757.41;1660305;85;21015;-56
2021/08/11 04:37:18;;;;;;;18.57;10.55;;;;;;;15.47;90.29;94753.03;1663404;85;21159;-55
2021/08/11 04:39:45;;;;;;;18.35;10.53;;;;;;;15.53;90.42;94752.53;1658614;85;21094;-55
2021/08/11 04:42:11;;;;;;;14.87;9.55;;;;;;;15.61;90.54;94751.67;1661117;85;21705;-56
2021/08/11 04:44:37;;;;;;;13.88;9.03;;;;;;;15.72;90.39;94752.47;1668436;85;20977;-55
2021/08/11 04:47:04;;;;;;;12.37;9.20;;;;;;;15.81;90.41;94760.06;1661135;85;21013;-56
2021/08/11 04:49:31;;;;;;;19.37;10.38;;;;;;;15.93;90.33;94754.06;1676543;84;21783;-56
2021/08/11 04:51:57;;;;;;;16.45;10.70;;;;;;;16.00;90.00;94759.98;1679205;85;20978;-56
2021/08/11 04:54:25;;;;;;;16.12;10.72;;;;;;;16.06;89.74;94760.83;1660175;85;21524;-56
2021/08/11 04:56:52;;;;;;;15.00;10.82;;;;;;;16.10;89.43;94762.03;1659826;85;21073;-55
2021/08/11 04:59:18;;;;;;;13.85;10.13;;;;;;;16.17;89.40;94754.67;1673989;85;21067;-56
2021/08/11 05:01:45;;;;;;;10.80;8.65;;;;;;;16.30;89.69;94762.81;1673319;85;21091;-56
2021/08/11 05:04:11;;;;;;;13.95;8.70;;;;;;;16.44;89.55;94761.43;1668545;85;20957;-56
2021/08/11 05:06:38;;;;;;;15.25;9.78;;;;;;;16.60;89.33;94761.50;1664513;85;21037;-55
2021/08/11 05:09:05;;;;;;;11.25;7.62;;;;;;;16.73;89.04;94761.30;1664812;85;20977;-56
2021/08/11 05:11:32;;;;;;;9.45;7.80;;;;;;;16.87;88.78;94754.16;1673320;84;21036;-55
2021/08/11 05:13:58;;;;;;;10.15;7.25;;;;;;;17.00;88.29;94757.32;1679790;85;21123;-56
2021/08/11 05:16:25;;;;;;;11.55;7.37;;;;;;;17.07;87.42;94754.88;1665432;85;20994;-55
2021/08/11 05:18:51;;;;;;;16.50;8.15;;;;;;;17.12;87.27;94760.38;1664232;85;21037;-55
2021/08/11 05:21:18;;;;;;;8.13;7.10;;;;;;;17.23;86.90;94766.05;1666620;85;20992;-55
2021/08/11 05:23:44;;;;;;;11.35;7.17;;;;;;;17.34;86.27;94771.15;1665047;85;20970;-56
2021/08/11 05:26:11;;;;;;;8.48;7.12;;;;;;;17.40;85.73;94771.96;1654889;85;21055;-57
2021/08/11 05:28:38;;;;;;;9.40;7.70;;;;;;;17.48;85.25;94774.44;1671590;84;21021;-56
2021/08/11 05:31:04;;;;;;;9.28;7.12;;;;;;;17.52;84.84;94770.05;1664356;85;21552;-55
2021/08/11 05:33:31;;;;;;;17.65;7.40;;;;;;;17.54;84.62;94766.92;1671675;85;21041;-57
2021/08/11 05:35:57;;;;;;;10.20;7.08;;;;;;;17.61;84.56;94760.16;1671531;85;20969;-56
2021/08/11 05:38:24;;;;;;;15.70;9.40;;;;;;;17.72;84.07;94764.42;1658679;84;21135;-57
2021/08/11 05:40:50;;;;;;;11.18;8.15;;;;;;;17.78;84.01;94765.22;1664748;85;21104;-57
2021/08/11 05:43:17;;;;;;;15.13;7.53;;;;;;;17.83;83.80;94765.28;1660618;84;21666;-57
2021/08/11 05:45:44;;;;;;;8.85;7.90;;;;;;;17.90;83.42;94762.06;1662773;84;21623;-57
2021/08/11 05:48:11;;;;;;;13.45;10.50;;;;;;;18.01;82.95;94759.34;1674821;83;21227;-56
2021/08/11 05:50:39;;;;;;;12.25;8.80;;;;;;;18.13;82.22;94765.77;1676880;85;21777;-57
2021/08/11 05:53:05;;;;;;;11.12;7.30;;;;;;;18.18;81.98;94760.24;1680531;83;21326;-56
2021/08/11 05:55:32;;;;;;;11.10;8.48;;;;;;;18.24;81.81;94761.81;1698134;83;21023;-56
2021/08/11 05:58:00;;;;;;;15.80;8.45;;;;;;;18.31;81.47;94759.98;1669580;83;21066;-58
2021/08/11 06:00:30;;;;;;;15.18;8.53;;;;;;;18.39;81.31;94755.48;1654938;84;21569;-56
2021/08/11 06:02:58;;;;;;;17.17;7.78;;;;;;;18.53;81.07;94745.43;1630854;86;21104;-59
2021/08/11 06:05:35;;;;;;;8.73;7.83;;;;;;;18.65;80.52;94740.06;1683009;83;21089;-58
2021/08/11 06:08:02;;;;;;;8.83;6.25;;;;;;;18.75;80.03;94738.56;1677371;83;21101;-58
2021/08/11 06:10:29;;;;;;;7.78;6.53;;;;;;;18.85;79.69;94738.50;1685655;83;21658;-57
2021/08/11 06:12:56;;;;;;;12.70;6.85;;;;;;;18.96;79.30;94742.71;1683237;83;21046;-58
2021/08/11 06:15:23;;;;;;;10.60;7.25;;;;;;;19.05;78.86;94736.92;1667426;84;21113;-57
2021/08/11 06:17:50;;;;;;;14.23;7.83;;;;;;;19.12;78.46;94739.22;1674363;83;21053;-59
2021/08/11 06:20:19;;;;;;;13.78;7.22;;;;;;;19.20;78.43;94728.50;1675946;83;21255;-56
2021/08/11 06:22:46;;;;;;;12.90;8.68;;;;;;;19.32;77.66;94727.89;1684357;83;21303;-59
2021/08/11 06:25:13;;;;;;;16.60;9.70;;;;;;;19.41;77.36;94728.42;1676086;83;21125;-57
2021/08/11 06:27:40;;;;;;;15.75;9.03;;;;;;;19.50;77.63;94726.80;1667624;83;21568;-56
2021/08/11 06:30:08;;;;;;;12.18;9.13;;;;;;;19.63;77.34;94722.12;1668756;83;21558;-59
2021/08/11 06:32:35;;;;;;;13.65;9.00;;;;;;;19.77;77.01;94720.47;1678347;83;21291;-56
2021/08/11 06:35:04;;;;;;;22.30;9.03;;;;;;;19.91;76.55;94719.47;1677912;83;21058;-58
2021/08/11 06:37:30;;;;;;;14.93;8.65;;;;;;;20.05;76.41;94714.91;1680631;83;21089;-61
2021/08/11 06:39:57;;;;;;;17.70;10.23;;;;;;;20.19;75.92;94714.66;1677071;83;21168;-56
2021/08/11 06:42:24;;;;;;;19.52;8.53;;;;;;;20.32;75.46;94715.66;1666233;84;21012;-56
2021/08/11 06:44:58;;;;;;;14.23;9.65;;;;;;;20.44;74.16;94709.41;1674642;83;20900;-55
2021/08/11 06:47:26;;;;;;;9.05;6.97;;;;;;;20.50;73.88;94715.73;1677713;83;21042;-56
2021/08/11 06:49:53;;;;;;;12.40;8.35;;;;;;;20.59;73.42;94712.02;1678031;83;21064;-60
2021/08/11 06:52:20;;;;;;;24.82;11.00;;;;;;;20.68;72.49;94715.95;1672101;83;21336;-56
2021/08/11 06:54:46;;;;;;;14.63;8.50;;;;;;;20.72;72.58;94710.09;1670452;84;21139;-56
2021/08/11 06:57:13;;;;;;;9.50;7.15;;;;;;;20.83;72.81;94704.45;1676377;83;22046;-59
2021/08/11 06:59:40;;;;;;;14.00;7.50;;;;;;;20.97;72.50;94700.61;1690056;83;21010;-57
2021/08/11 07:02:07;;;;;;;10.68;6.85;;;;;;;21.12;71.79;94699.66;1685651;83;21026;-55
2021/08/11 07:04:34;;;;;;;14.18;7.37;;;;;;;21.23;71.33;94700.98;1680716;83;21153;-59
2021/08/11 07:07:00;;;;;;;27.73;21.25;;;;;;;21.35;70.90;94694.83;1682828;83;20954;-61
2021/08/11 07:09:27;;;;;;;18.87;14.00;;;;;;;21.45;70.03;94694.62;1674808;82;21061;-59
2021/08/11 07:11:54;;;;;;;18.95;12.82;;;;;;;21.51;69.67;94688.33;1683431;83;21098;-56
2021/08/11 07:14:21;;;;;;;18.30;9.25;;;;;;;21.57;69.15;94697.48;1672255;83;21697;-57
2021/08/11 07:16:48;;;;;;;14.43;7.55;;;;;;;21.63;68.62;94690.47;1667975;83;21834;-58
2021/08/11 07:19:14;;;;;;;14.15;6.67;;;;;;;21.69;68.15;94689.78;1678446;83;21133;-60
2021/08/11 07:21:41;;;;;;;10.90;7.35;;;;;;;21.74;67.55;94690.38;1687117;84;21029;-60
2021/08/11 07:24:08;;;;;;;10.78;6.35;;;;;;;21.75;67.37;94691.27;1679883;83;21080;-60
2021/08/11 07:26:34;;;;;;;17.10;6.75;;;;;;;21.81;67.67;94688.43;1676422;83;21037;-57
2021/08/11 07:29:01;;;;;;;10.88;5.55;;;;;;;21.89;67.16;94678.16;1678683;82;21138;-61
2021/08/11 07:31:28;;;;;;;12.75;6.67;;;;;;;22.00;66.61;94678.08;1677123;83;21101;-57
2021/08/11 07:33:55;;;;;;;11.53;7.47;;;;;;;22.10;66.24;94674.41;1679093;83;21176;-57
2021/08/11 07:36:22;;;;;;;23.00;15.50;;;;;;;22.24;65.74;94669.81;1680549;83;21038;-61
2021/08/11 07:38:49;;;;;;;23.47;14.20;;;;;;;22.39;65.39;94670.20;1682424;83;21112;-56
2021/08/11 07:41:16;;;;;;;17.05;8.75;;;;;;;22.49;64.55;94669.95;1679499;83;21784;-59
2021/08/11 07:43:43;;;;;;;10.40;6.75;;;;;;;22.57;64.23;94670.90;1671284;83;21895;-57
2021/08/11 07:46:09;;;;;;;15.78;6.78;;;;;;;22.66;63.42;94668.38;1678737;83;21039;-60
2021/08/11 07:48:36;;;;;;;16.73;13.05;;;;;;;22.75;63.29;94667.38;1649728;84;21297;-61
2021/08/11 07:51:03;;;;;;;10.25;8.00;;;;;;;22.85;62.69;94662.91;1674322;84;22265;-57
2021/08/11 07:53:30;;;;;;;9.80;5.83;;;;;;;22.94;61.94;94668.16;1659918;83;21122;-61
2021/08/11 07:55:57;;;;;;;8.30;5.33;;;;;;;23.05;61.61;94666.59;1672490;83;21059;-58
2021/08/11 07:58:25;;;;;;;11.70;6.40;;;;;;;23.14;60.85;94663.46;1677137;83;21115;-59
2021/08/11 08:00:52;;;;;;;10.65;5.45;;;;;;;23.23;60.92;94662.33;1673090;83;21081;-61
2021/08/11 08:03:21;;;;;;;10.78;5.75;;;;;;;23.36;61.22;94665.95;1676586;83;21149;-61
2021/08/11 08:05:48;;;;;;;17.55;6.50;;;;;;;23.48;60.95;94663.74;1665168;83;21119;-63
2021/08/11 08:08:15;;;;;;;10.38;5.75;;;;;;;23.61;61.09;94660.34;1668942;83;21047;-56
2021/08/11 08:10:42;;;;;;;13.30;5.05;;;;;;;23.75;60.82;94663.33;1678803;83;21262;-57
2021/08/11 08:13:09;;;;;;;7.37;5.12;;;;;;;23.89;60.08;94663.52;1677487;83;21619;-57
2021/08/11 08:15:36;;;;;;;12.13;5.60;;;;;;;23.99;59.74;94651.99;1663664;83;21100;-57
2021/08/11 08:18:04;;;;;;;14.23;5.37;;;;;;;24.08;59.95;94647.35;1663887;84;21103;-59
2021/08/11 08:20:33;;;;;;;10.88;5.42;;;;;;;24.22;59.55;94653.12;1653488;84;21509;-62
2021/08/11 08:23:00;;;;;;;8.08;5.15;;;;;;;24.31;59.18;94645.66;1674753;83;21153;-63
2021/08/11 08:25:26;;;;;;;13.65;5.45;;;;;;;24.43;58.77;94642.75;1665516;83;21070;-58
2021/08/11 08:27:54;;;;;;;6.67;4.95;;;;;;;24.58;58.44;94642.35;1660867;83;21681;-60
2021/08/11 08:30:21;;;;;;;8.20;6.15;;;;;;;24.73;57.68;94634.13;1669712;83;22267;-57
2021/08/11 08:32:49;;;;;;;10.20;5.70;;;;;;;24.89;56.90;94635.08;1677401;84;21136;-60
2021/08/11 08:35:16;;;;;;;13.05;5.05;;;;;;;25.10;56.92;94644.39;1660491;84;21381;-60
2021/08/11 08:37:43;;;;;;;9.95;5.15;;;;;;;25.28;54.92;94643.52;1691738;83;21043;-60
2021/08/11 08:40:14;;;;;;;7.30;4.47;;;;;;;25.45;52.91;94639.01;1661356;84;21606;-62
2021/08/11 08:42:41;;;;;;;22.77;6.05;;;;;;;25.61;52.88;94631.47;1665679;83;21509;-59
2021/08/11 08:45:10;;;;;;;10.48;5.58;;;;;;;25.76;53.09;94626.76;1669910;83;22253;-58
2021/08/11 08:47:37;;;;;;;16.48;6.40;;;;;;;25.93;51.69;94625.06;1678141;83;21148;-61
2021/08/11 08:50:06;;;;;;;6.47;4.00;;;;;;;26.06;50.79;94620.77;1675153;83;21062;-63
2021/08/11 08:52:33;;;;;;;4.97;3.65;;;;;;;26.17;49.62;94613.45;1673646;83;21101;-61
2021/08/11 08:55:00;;;;;;;6.50;4.17;;;;;;;26.25;48.97;94611.42;1676008;83;21120;-59
2021/08/11 08:57:27;;;;;;;8.70;4.12;;;;;;;26.34;48.75;94615.81;1667315;83;20993;-59
2021/08/11 08:59:54;;;;;;;4.95;3.50;;;;;;;26.42;47.32;94613.15;1674195;83;21056;-60
2021/08/11 09:02:20;;;;;;;19.32;4.75;;;;;;;26.56;44.02;94607.55;1674222;83;21081;-60
2021/08/11 09:04:49;;;;;;;7.42;3.72;;;;;;;26.72;43.30;94617.63;1665124;83;21555;-59
2021/08/11 09:07:18;;;;;;;7.85;3.50;;;;;;;26.86;43.79;94611.20;1671789;83;21082;-58
2021/08/11 09:09:45;;;;;;;3.87;2.98;;;;;;;26.93;43.92;94601.35;1671823;83;20938;-57
2021/08/11 09:12:20;;;;;;;9.00;3.72;;;;;;;27.01;44.29;94602.13;1678183;83;21057;-60
2021/08/11 09:14:48;;;;;;;9.20;4.45;;;;;;;27.11;43.59;94605.98;1667705;83;21077;-56
2021/08/11 09:17:36;;;;;;;3.83;3.10;;;;;;;27.28;41.70;94601.23;1661981;83;21132;-60
2021/08/11 09:20:07;;;;;;;4.45;3.15;;;;;;;27.45;40.29;94605.08;1674480;83;21125;-57
2021/08/11 09:22:49;;;;;;;8.78;3.95;;;;;;;27.61;39.99;94602.36;1666690;83;21706;-60
2021/08/11 09:25:16;;;;;;;5.05;2.95;;;;;;;27.74;38.61;94590.92;1673088;83;21479;-58
2021/08/11 09:27:45;;;;;;;4.42;3.33;;;;;;;27.85;38.08;94596.23;1675442;84;21156;-58
2021/08/11 09:30:17;;;;;;;4.67;2.80;;;;;;;27.94;38.81;94592.19;1662377;84;21022;-59
2021/08/11 09:32:59;;;;;;;;;;;;;;;28.11;37.33;94592.39;1658016;83;22294;-58
2021/08/11 09:35:31;;;;;;;4.65;2.90;;;;;;;28.25;37.82;94588.70;1665627;84;20253;-58
2021/08/11 09:38:00;;;;;;;25.95;4.67;;;;;;;28.38;37.41;94580.79;1671444;83;21056;-58
2021/08/11 09:40:32;;;;;;;7.28;3.42;;;;;;;28.57;37.18;94588.89;1655229;83;21184;-60
2021/08/11 09:43:03;;;;;;;4.95;3.45;;;;;;;28.74;38.45;94591.88;1664852;83;21049;-57
2021/08/11 09:45:47;;;;;;;7.05;3.60;;;;;;;28.88;37.03;94578.98;1681932;83;21185;-58
2021/08/11 09:48:19;;;;;;;8.68;3.80;;;;;;;29.05;37.11;94584.81;1681043;83;21168;-57
2021/08/11 09:51:03;;;;;;;4.40;3.17;;;;;;;29.14;35.61;94582.81;1639117;85;20995;-61
2021/08/11 09:53:39;;;;;;;8.43;2.80;;;;;;;29.14;35.60;94577.88;1667483;84;21030;-58
2021/08/11 09:56:07;;;;;;;8.53;3.00;;;;;;;29.20;36.21;94585.53;1671194;83;21043;-58
2021/08/11 09:58:55;;;;;;;5.17;2.80;;;;;;;29.34;34.75;94594.53;1686505;83;21139;-58
2021/08/11 10:01:27;;;;;;;3.30;2.37;;;;;;;29.40;34.01;94579.47;1689707;83;21140;-58
2021/08/11 10:04:00;;;;;;;6.50;2.75;;;;;;;29.45;35.02;94584.16;1681753;84;21626;-60
2021/08/11 10:06:37;;;;;;;7.37;3.10;;;;;;;29.54;35.12;94574.41;1665484;83;21143;-57
2021/08/11 10:09:26;;;;;;;9.90;3.40;;;;;;;29.71;33.95;94579.43;1659359;83;21050;-57
2021/08/11 10:11:57;;;;;;;5.72;3.00;;;;;;;29.79;33.89;94563.10;1672701;84;21240;-58
2021/08/11 10:14:29;;;;;;;6.20;3.60;;;;;;;29.95;34.35;94581.61;1665479;83;20985;-58
2021/08/11 10:16:59;;;;;;;6.50;3.47;;;;;;;30.08;33.64;94567.17;1669562;83;21137;-57
2021/08/11 10:19:30;;;;;;;5.72;3.10;;;;;;;30.32;33.13;94570.66;1663787;85;21159;-58
2021/08/11 10:22:00;;;;;;;5.45;3.30;;;;;;;30.56;32.53;94571.95;1679084;84;21118;-58
2021/08/11 10:24:28;;;;;;;5.30;3.02;;;;;;;30.73;31.99;94570.59;1687571;83;21361;-58
2021/08/11 10:26:55;;;;;;;9.10;3.55;;;;;;;30.79;30.92;94570.43;1672515;84;21120;-59
2021/08/11 10:29:23;;;;;;;7.00;3.50;;;;;;;30.98;31.82;94569.17;1673389;83;21146;-57
2021/08/11 10:31:50;;;;;;;5.58;3.27;;;;;;;31.18;31.72;94557.30;1660113;84;21669;-58
2021/08/11 10:34:18;;;;;;;6.05;3.08;;;;;;;31.45;31.66;94558.11;1663936;84;21011;-58
2021/08/11 10:36:46;;;;;;;6.78;3.15;;;;;;;31.74;31.07;94551.96;1659271;85;21141;-58
2021/08/11 10:39:14;;;;;;;7.67;3.55;;;;;;;31.71;30.48;94543.16;1665076;84;21069;-58
2021/08/11 10:41:40;;;;;;;6.85;4.40;;;;;;;31.83;30.18;94539.20;1668323;83;21091;-58
2021/08/11 10:44:15;;;;;;;6.92;3.72;;;;;;;31.80;30.51;94543.20;1671128;83;21139;-56
2021/08/11 10:46:45;;;;;;;7.80;5.40;;;;;;;31.72;30.14;94534.04;1656174;83;21433;-57
2021/08/11 10:49:16;;;;;;;17.35;7.30;;;;;;;31.44;30.46;94537.43;1675423;83;21825;-57
2021/08/11 10:51:46;;;;;;;8.88;5.62;;;;;;;31.08;31.24;94538.72;1646888;85;21068;-60
2021/08/11 10:54:12;;;;;;;9.08;4.33;;;;;;;30.94;31.68;94544.69;1655869;83;21449;-60
2021/08/11 10:56:50;;;;;;;12.35;6.90;;;;;;;30.65;32.23;94542.26;1663379;85;21138;-58
2021/08/11 10:59:29;;;;;;;8.93;4.10;;;;;;;30.39;33.14;94551.40;1674675;83;21055;-61
2021/08/11 11:01:57;;;;;;;9.90;3.52;;;;;;;30.04;34.53;94562.58;1657681;83;21173;-60
2021/08/11 11:04:41;;;;;;;13.90;4.10;;;;;;;29.60;35.65;94562.84;1654336;84;21104;-60
2021/08/11 11:07:15;;;;;;;8.93;5.33;;;;;;;29.25;36.11;94562.53;1654327;84;21035;-60
2021/08/11 11:09:47;;;;;;;7.58;3.75;;;;;;;29.53;36.93;94553.73;1678236;83;21003;-59
2021/08/11 11:12:23;;;;;;;5.10;3.33;;;;;;;29.95;34.90;94548.98;1665162;84;22040;-60
2021/08/11 11:14:58;;;;;;;6.15;3.72;;;;;;;30.43;34.20;94550.97;1663790;83;22307;-62
2021/08/11 11:17:30;;;;;;;6.08;3.62;;;;;;;30.92;34.41;94551.63;1668964;83;21107;-59
2021/08/11 11:20:08;;;;;;;4.17;3.20;;;;;;;31.34;32.84;94540.14;1666811;83;21837;-57
2021/08/11 11:22:52;;;;;;;11.40;4.05;;;;;;;31.27;34.24;94536.73;1670738;83;21084;-57
2021/08/11 11:25:19;;;;;;;13.58;3.72;;;;;;;31.22;35.80;94543.44;1672592;83;21019;-61
2021/08/11 11:27:55;;;;;;;5.22;2.98;;;;;;;31.49;34.17;94529.98;1680118;83;21150;-58
2021/08/11 11:30:31;;;;;;;5.12;3.05;;;;;;;32.03;32.46;94532.24;1672710;84;21131;-60
2021/08/11 11:33:24;;;;;;;6.05;3.33;;;;;;;32.25;31.07;94533.99;1677383;83;21057;-61
2021/08/11 11:36:23;;;;;;;8.55;3.27;;;;;;;32.69;29.67;94528.86;1669076;84;21140;-58